Terminal Aerodrome Forecast
Issued by NWS

Home | Current Version | Previous Version | Text Only | Print | Product List | Glossary On
Versions: 1 2 3 4 5 6 7 8 9 10 11 12 13 14 15 16 17 18
000
FTUS41 KGYX 211743
TAFAUG
TAF
KAUG 211743Z 2118/2218 VRB03KT P6SM BKN120
     FM220800 VRB03KT 3SM BR BKN010
     FM221300 08005KT P6SM BKN025=

USA.gov is the U.S. government's official web portal to all federal, state and local government web resources and services.